PWSweather.com
Personal Weather Stations
Station Observations
VACLIF1
Little Rocky Run, Clifton, VA 20124

Little Rocky RunClifton, VA 20124

Lat: 38.81855, Lon: -77.419867

Elevation: 302

Station Type: Ambient WS-2080A

Latest ConditionsUpdated 10:40:00 AM EST Tuesday, Jan 16, 2018
Currently Today's Max Today's Min Today's Average
Temperature 31.5°F-0.3°C 31.5°F-0.3°C 26.2°F-3.2°C 27.3°F-2.6°C
Dew Point 25.1°F-3.8°C 25.1°F-3.8°C 18.5°F-7.5°C 20.8°F-6.2°C
Winds 2.4 mph ENE3.9 kmh ENE 3.5 mph NE5.6 kmh NE - 0.8 mph 1.3 kmh
Wind Gusts 4.1 mph6.6 kmh 7.1 mph11.4 kmh - -
Humidity 77% 82% 71% 76%
Pressure 30.45 in1031.2 mb 30.45 in1031.2 mb 30.41 in1029.8 mb -
Hour Temp Dew Point Humidity Winds Wind Gusts Pressure Precip Precip Rate Daily Precip Total
10:40 AM 31.5°F-0.3°C 25.1°F-3.8°C 77% 2.4 mph ENE3.9 kmh ENE 4.1 mph6.6 kmh 30.45 in1031.2 mb 0.00 in0.0 mm 0.00 in0.0 mm 0.00 in0.0 mm
10:30 AM 30.7°F-0.7°C 24.7°F-4.1°C 78% 2.3 mph E3.7 kmh E 4.1 mph6.6 kmh 30.45 in1031.2 mb 0.00 in0.0 mm 0.00 in0.0 mm 0.00 in0.0 mm
10:20 AM 30.2°F-1.0°C 24.2°F-4.3°C 78% 1.3 mph SW2.1 kmh SW 3.0 mph4.8 kmh 30.45 in1031.2 mb 0.00 in0.0 mm 0.00 in0.0 mm 0.00 in0.0 mm
10:10 AM 29.7°F-1.3°C 24.3°F-4.3°C 80% 2.3 mph SE3.7 kmh SE 4.1 mph6.6 kmh 30.45 in1031.2 mb 0.00 in0.0 mm 0.00 in0.0 mm 0.00 in0.0 mm
10:00 AM 29.3°F-1.5°C 23.9°F-4.5°C 80% 2.1 mph ESE3.4 kmh ESE 4.1 mph6.6 kmh 30.45 in1031.2 mb 0.00 in0.0 mm 0.00 in0.0 mm 0.00 in0.0 mm
09:50 AM 29.3°F-1.5°C 24.2°F-4.3°C 81% 2.9 mph S4.7 kmh S 5.0 mph8.0 kmh 30.45 in1031.2 mb 0.00 in0.0 mm 0.00 in0.0 mm 0.00 in0.0 mm
09:40 AM 28.9°F-1.7°C 24.2°F-4.3°C 82% 2.6 mph E4.2 kmh E 4.1 mph6.6 kmh 30.45 in1031.2 mb 0.00 in0.0 mm 0.00 in0.0 mm 0.00 in0.0 mm
09:30 AM 28.8°F-1.8°C 24.0°F-4.4°C 82% 3.5 mph NE5.6 kmh NE 7.1 mph11.4 kmh 30.45 in1031.2 mb 0.00 in0.0 mm 0.00 in0.0 mm 0.00 in0.0 mm
09:20 AM 28.6°F-1.9°C 23.8°F-4.6°C 82% 3.0 mph NE4.8 kmh NE 5.0 mph8.0 kmh 30.45 in1031.2 mb 0.00 in0.0 mm 0.00 in0.0 mm 0.00 in0.0 mm
09:10 AM 28.2°F-2.1°C 22.3°F-5.4°C 78% 2.9 mph NE4.7 kmh NE 4.1 mph6.6 kmh 30.45 in1031.2 mb 0.00 in0.0 mm 0.00 in0.0 mm 0.00 in0.0 mm
09:00 AM 27.9°F-2.3°C 21.9°F-5.6°C 78% 2.1 mph NE3.4 kmh NE 3.0 mph4.8 kmh 30.45 in1031.2 mb 0.00 in0.0 mm 0.00 in0.0 mm 0.00 in0.0 mm
08:50 AM 27.7°F-2.4°C 21.7°F-5.7°C 78% 2.1 mph ENE3.4 kmh ENE 4.1 mph6.6 kmh 30.45 in1031.2 mb 0.00 in0.0 mm 0.00 in0.0 mm 0.00 in0.0 mm
08:40 AM 27.5°F-2.5°C 21.6°F-5.8°C 78% 1.3 mph ESE2.1 kmh ESE 2.1 mph3.4 kmh 30.45 in1031.2 mb 0.00 in0.0 mm 0.00 in0.0 mm 0.00 in0.0 mm
08:30 AM 27.3°F-2.6°C 21.4°F-5.9°C 78% 1.6 mph E2.6 kmh E 4.1 mph6.6 kmh 30.45 in1031.2 mb 0.00 in0.0 mm 0.00 in0.0 mm 0.00 in0.0 mm
08:20 AM 27.3°F-2.6°C 21.1°F-6.1°C 77% 2.1 mph NE3.4 kmh NE 5.0 mph8.0 kmh 30.45 in1031.2 mb 0.00 in0.0 mm 0.00 in0.0 mm 0.00 in0.0 mm
08:10 AM 27.1°F-2.7°C 20.9°F-6.2°C 77% 0.9 mph SE1.4 kmh SE 3.0 mph4.8 kmh 30.45 in1031.2 mb 0.00 in0.0 mm 0.00 in0.0 mm 0.00 in0.0 mm
08:00 AM 27.0°F-2.8°C 20.7°F-6.3°C 77% 0.7 mph E1.1 kmh E 2.1 mph3.4 kmh 30.45 in1031.2 mb 0.00 in0.0 mm 0.00 in0.0 mm 0.00 in0.0 mm
07:50 AM 27.0°F-2.8°C 20.7°F-6.3°C 77% 0.3 mph E0.5 kmh E 0.9 mph1.4 kmh 30.44 in1030.8 mb 0.00 in0.0 mm 0.00 in0.0 mm 0.00 in0.0 mm
07:40 AM 27.0°F-2.8°C 20.4°F-6.4°C 76% 1.0 mph E1.6 kmh E 2.1 mph3.4 kmh 30.43 in1030.5 mb 0.00 in0.0 mm 0.00 in0.0 mm 0.00 in0.0 mm
07:30 AM 27.0°F-2.8°C 20.4°F-6.4°C 76% Calm Calm -- 30.43 in1030.5 mb 0.00 in0.0 mm 0.00 in0.0 mm 0.00 in0.0 mm
07:20 AM 27.0°F-2.8°C 20.4°F-6.4°C 76% 0.8 mph NE1.3 kmh NE 2.1 mph3.4 kmh 30.43 in1030.5 mb 0.00 in0.0 mm 0.00 in0.0 mm 0.00 in0.0 mm
07:10 AM 27.0°F-2.8°C 20.4°F-6.4°C 76% 1.5 mph E2.4 kmh E 2.1 mph3.4 kmh 30.43 in1030.5 mb 0.00 in0.0 mm 0.00 in0.0 mm 0.00 in0.0 mm
07:00 AM 26.8°F-2.9°C 20.3°F-6.5°C 76% 1.2 mph E1.9 kmh E 2.1 mph3.4 kmh 30.44 in1030.8 mb 0.00 in0.0 mm 0.00 in0.0 mm 0.00 in0.0 mm
06:50 AM 26.6°F-3.0°C 20.1°F-6.6°C 76% 0.3 mph E0.5 kmh E 0.9 mph1.4 kmh 30.43 in1030.5 mb 0.00 in0.0 mm 0.00 in0.0 mm 0.00 in0.0 mm
06:40 AM 26.6°F-3.0°C 20.1°F-6.6°C 76% Calm Calm 0.9 mph1.4 kmh 30.45 in1031.2 mb 0.00 in0.0 mm 0.00 in0.0 mm 0.00 in0.0 mm
06:30 AM 26.6°F-3.0°C 20.1°F-6.6°C 76% Calm Calm -- 30.45 in1031.2 mb 0.00 in0.0 mm 0.00 in0.0 mm 0.00 in0.0 mm
06:20 AM 26.6°F-3.0°C 19.8°F-6.8°C 75% Calm Calm -- 30.44 in1030.8 mb 0.00 in0.0 mm 0.00 in0.0 mm 0.00 in0.0 mm
06:10 AM 26.4°F-3.1°C 19.9°F-6.7°C 76% 0.4 mph NE0.6 kmh NE 2.1 mph3.4 kmh 30.43 in1030.5 mb 0.00 in0.0 mm 0.00 in0.0 mm 0.00 in0.0 mm
06:00 AM 26.4°F-3.1°C 19.9°F-6.7°C 76% 0.3 mph NE0.5 kmh NE 0.9 mph1.4 kmh 30.43 in1030.5 mb 0.00 in0.0 mm 0.00 in0.0 mm 0.00 in0.0 mm
05:50 AM 26.4°F-3.1°C 19.9°F-6.7°C 76% 0.5 mph W0.8 kmh W 2.1 mph3.4 kmh 30.43 in1030.5 mb 0.00 in0.0 mm 0.00 in0.0 mm 0.00 in0.0 mm
05:40 AM 26.2°F-3.2°C 19.7°F-6.8°C 76% Calm Calm -- 30.42 in1030.1 mb 0.00 in0.0 mm 0.00 in0.0 mm 0.00 in0.0 mm
05:30 AM 26.2°F-3.2°C 19.7°F-6.8°C 76% Calm Calm -- 30.43 in1030.5 mb 0.00 in0.0 mm 0.00 in0.0 mm 0.00 in0.0 mm
05:20 AM 26.2°F-3.2°C 19.7°F-6.8°C 76% Calm Calm -- 30.42 in1030.1 mb 0.00 in0.0 mm 0.00 in0.0 mm 0.00 in0.0 mm
05:10 AM 26.2°F-3.2°C 19.7°F-6.8°C 76% Calm Calm -- 30.42 in1030.1 mb 0.00 in0.0 mm 0.00 in0.0 mm 0.00 in0.0 mm
05:00 AM 26.2°F-3.2°C 19.7°F-6.8°C 76% Calm Calm -- 30.41 in1029.8 mb 0.00 in0.0 mm 0.00 in0.0 mm 0.00 in0.0 mm
04:50 AM 26.2°F-3.2°C 19.7°F-6.8°C 76% 0.1 mph E0.2 kmh E 0.9 mph1.4 kmh 30.41 in1029.8 mb 0.00 in0.0 mm 0.00 in0.0 mm 0.00 in0.0 mm
04:40 AM 26.4°F-3.1°C 20.2°F-6.6°C 77% 0.1 mph E0.2 kmh E 0.9 mph1.4 kmh 30.41 in1029.8 mb 0.00 in0.0 mm 0.00 in0.0 mm 0.00 in0.0 mm
04:30 AM 26.6°F-3.0°C 20.1°F-6.6°C 76% 0.1 mph E0.2 kmh E 0.9 mph1.4 kmh 30.42 in1030.1 mb 0.00 in0.0 mm 0.00 in0.0 mm 0.00 in0.0 mm
04:20 AM 26.8°F-2.9°C 20.3°F-6.5°C 76% 0.1 mph E0.2 kmh E 0.9 mph1.4 kmh 30.43 in1030.5 mb 0.00 in0.0 mm 0.00 in0.0 mm 0.00 in0.0 mm
04:10 AM 27.0°F-2.8°C 20.4°F-6.4°C 76% 0.4 mph E0.6 kmh E 0.9 mph1.4 kmh 30.42 in1030.1 mb 0.00 in0.0 mm 0.00 in0.0 mm 0.00 in0.0 mm
04:00 AM 27.1°F-2.7°C 20.6°F-6.3°C 76% Calm Calm -- 30.42 in1030.1 mb 0.00 in0.0 mm 0.00 in0.0 mm 0.00 in0.0 mm
03:50 AM 27.1°F-2.7°C 20.6°F-6.3°C 76% Calm Calm -- 30.42 in1030.1 mb 0.00 in0.0 mm 0.00 in0.0 mm 0.00 in0.0 mm
03:40 AM 27.1°F-2.7°C 20.6°F-6.3°C 76% Calm Calm -- 30.41 in1029.8 mb 0.00 in0.0 mm 0.00 in0.0 mm 0.00 in0.0 mm
03:30 AM 27.1°F-2.7°C 20.6°F-6.3°C 76% Calm Calm -- 30.42 in1030.1 mb 0.00 in0.0 mm 0.00 in0.0 mm 0.00 in0.0 mm
03:20 AM 27.3°F-2.6°C 20.8°F-6.2°C 76% Calm Calm -- 30.41 in1029.8 mb 0.00 in0.0 mm 0.00 in0.0 mm 0.00 in0.0 mm
03:10 AM 27.3°F-2.6°C 20.8°F-6.2°C 76% Calm Calm -- 30.42 in1030.1 mb 0.00 in0.0 mm 0.00 in0.0 mm 0.00 in0.0 mm
03:00 AM 27.3°F-2.6°C 20.8°F-6.2°C 76% Calm Calm -- 30.42 in1030.1 mb 0.00 in0.0 mm 0.00 in0.0 mm 0.00 in0.0 mm
02:50 AM 27.3°F-2.6°C 20.8°F-6.2°C 76% Calm Calm -- 30.43 in1030.5 mb 0.00 in0.0 mm 0.00 in0.0 mm 0.00 in0.0 mm
02:40 AM 27.3°F-2.6°C 20.5°F-6.4°C 75% 0.1 mph E0.2 kmh E 0.9 mph1.4 kmh 30.42 in1030.1 mb 0.00 in0.0 mm 0.00 in0.0 mm 0.00 in0.0 mm
02:30 AM 27.1°F-2.7°C 20.3°F-6.5°C 75% Calm Calm -- 30.42 in1030.1 mb 0.00 in0.0 mm 0.00 in0.0 mm 0.00 in0.0 mm
02:20 AM 27.1°F-2.7°C 20.3°F-6.5°C 75% Calm Calm -- 30.42 in1030.1 mb 0.00 in0.0 mm 0.00 in0.0 mm 0.00 in0.0 mm
02:10 AM 27.3°F-2.6°C 20.5°F-6.4°C 75% Calm Calm -- 30.42 in1030.1 mb 0.00 in0.0 mm 0.00 in0.0 mm 0.00 in0.0 mm
02:00 AM 27.5°F-2.5°C 20.6°F-6.3°C 75% Calm Calm -- 30.42 in1030.1 mb 0.00 in0.0 mm 0.00 in0.0 mm 0.00 in0.0 mm
01:50 AM 27.5°F-2.5°C 20.6°F-6.3°C 75% 0.1 mph E0.2 kmh E 0.9 mph1.4 kmh 30.43 in1030.5 mb 0.00 in0.0 mm 0.00 in0.0 mm 0.00 in0.0 mm
01:40 AM 27.5°F-2.5°C 20.3°F-6.5°C 74% 0.2 mph N0.3 kmh N 0.9 mph1.4 kmh 30.42 in1030.1 mb 0.00 in0.0 mm 0.00 in0.0 mm 0.00 in0.0 mm
01:30 AM 27.3°F-2.6°C 20.2°F-6.6°C 74% 1.0 mph NE1.6 kmh NE 3.0 mph4.8 kmh 30.42 in1030.1 mb 0.00 in0.0 mm 0.00 in0.0 mm 0.00 in0.0 mm
01:20 AM 27.3°F-2.6°C 19.8°F-6.8°C 73% 0.6 mph NE1.0 kmh NE 0.9 mph1.4 kmh 30.42 in1030.1 mb 0.00 in0.0 mm 0.00 in0.0 mm 0.00 in0.0 mm
01:10 AM 27.3°F-2.6°C 19.8°F-6.8°C 73% 0.7 mph E1.1 kmh E 2.1 mph3.4 kmh 30.43 in1030.5 mb 0.00 in0.0 mm 0.00 in0.0 mm 0.00 in0.0 mm
01:00 AM 27.1°F-2.7°C 19.7°F-6.8°C 73% 0.8 mph ENE1.3 kmh ENE 2.1 mph3.4 kmh 30.43 in1030.5 mb 0.00 in0.0 mm 0.00 in0.0 mm 0.00 in0.0 mm
12:50 AM 27.1°F-2.7°C 19.3°F-7.1°C 72% 1.3 mph E2.1 kmh E 2.1 mph3.4 kmh 30.43 in1030.5 mb 0.00 in0.0 mm 0.00 in0.0 mm 0.00 in0.0 mm
12:40 AM 27.1°F-2.7°C 19.3°F-7.1°C 72% 0.2 mph E0.3 kmh E 0.9 mph1.4 kmh 30.44 in1030.8 mb 0.00 in0.0 mm 0.00 in0.0 mm 0.00 in0.0 mm
12:30 AM 27.0°F-2.8°C 19.2°F-7.1°C 72% 0.8 mph E1.3 kmh E 2.1 mph3.4 kmh 30.44 in1030.8 mb 0.00 in0.0 mm 0.00 in0.0 mm 0.00 in0.0 mm
12:20 AM 26.8°F-2.9°C 18.7°F-7.4°C 71% 0.6 mph E1.0 kmh E 2.1 mph3.4 kmh 30.44 in1030.8 mb 0.00 in0.0 mm 0.00 in0.0 mm 0.00 in0.0 mm
12:10 AM 26.6°F-3.0°C 18.5°F-7.5°C 71% 0.7 mph E1.1 kmh E 2.1 mph3.4 kmh 30.43 in1030.5 mb 0.00 in0.0 mm 0.00 in0.0 mm 0.00 in0.0 mm
12:00 AM 26.6°F-3.0°C 18.5°F-7.5°C 71% 0.6 mph NE1.0 kmh NE 0.9 mph1.4 kmh 30.44 in1030.8 mb 0.00 in0.0 mm 0.00 in0.0 mm 0.00 in0.0 mm